Altoona Blair County Airport
KAOO : now visible

Airfield :











YOU CAN JOIN US ON...

 
LOGIN :

Register | Disclaimer

   EN    FR    IT 

 









Legend :    VFR   Marginal VFR   IFR   Intensive IFR   Very Intensive IFR
Visi :
Ceiling :
>= 8 km
>= 3000ft
5 to 8 km
1000 to 3000 ft
1500m to 5 km
500 to 1000 ft
800 to 1500m
200 to 500 ft
< 800m
< 200 ft
Symbols :   Thunderstorms  Fog  Heavy snow  Heavy precipitations  Wind > 20 kt






- Airport Elevation : 1503 ft
- IATA code : AOO


KAOO - Altoona Blair County

CURRENT METAR :
  • 301453Z AUTO 35006KT 10SM FEW033 25/14 A2996 RMK AO2 SLP134 T02500144 51018

EXPIRED METARs :
  • 301353Z AUTO 33008KT 10SM FEW030 23/15 A2995 RMK AO2 SLP130 T02330150
  • 301319Z AUTO 35010KT 10SM BKN028 23/15 A2994 RMK AO2 T02280150
  • 301253Z AUTO 32005KT 10SM SCT029 22/15 A2993 RMK AO2 SLP126 T02170150

TAF KAOO
Valid from the 30 at 12:00 until the 31 at 12:00 UTC


301120Z 3012/3112 32007KT P6SM FEW025
FM301400 33012G22KT P6SM BKN040
FM302300 32007KT P6SM SKC
FM310400 00000KT P6SM SKC
KZOB FIR / North America



MET'MAP, your aeronautical weather chart ! - Copyright ORBIFLY December 2007 - Disclaimer

ORBIFLY MET'MAP TEAM :

Programming & Development : Alexandra Zaïnal
Concept & original design : Baudouin d'Aumeries
Assistance for programming : Marc-Olivier Méhu
Technical & hardware support : Manuel Goepfert

Contact : metmap@orbifly.com




SOURCES & CREDITS :

   NOAA       Earth
Advisory